Time,TemperatureF,DewpointF,PressureIn,WindDirection,WindDirectionDegrees,WindSpeedMPH,WindSpeedGustMPH,Humidity,HourlyPrecipIn,Conditions,Clouds,dailyrainin,SolarRadiationWatts/m^2,SoftwareType,DateUTC
2013-05-09 00:10:00,62.2,35.0,31.43,SE,140,7.0,12.0,36,0.00,,,0.00,0,weatherlink.com 1.10,2013-05-09 06:10:00,
2013-05-09 00:25:00,62.0,35.0,31.44,SE,146,4.0,9.0,36,0.00,,,0.00,0,weatherlink.com 1.10,2013-05-09 06:25:00,
2013-05-09 00:40:00,61.2,35.0,31.44,SE,134,0.0,7.0,37,0.00,,,0.00,0,weatherlink.com 1.10,2013-05-09 06:40:00,
2013-05-09 00:55:00,58.5,35.0,31.45,South,176,2.0,5.0,41,0.00,,,0.00,0,weatherlink.com 1.10,2013-05-09 06:55:00,
2013-05-09 01:10:00,57.1,35.0,31.45,South,176,1.0,2.0,43,0.00,,,0.00,0,weatherlink.com 1.10,2013-05-09 07:10:00,
2013-05-09 01:26:00,56.0,35.0,31.46,South,176,3.0,3.0,45,0.00,,,0.00,0,weatherlink.com 1.10,2013-05-09 07:26:00,
2013-05-09 01:41:00,55.2,35.0,31.46,South,176,0.0,1.0,46,0.00,,,0.00,0,weatherlink.com 1.10,2013-05-09 07:41:00,
2013-05-09 01:56:00,54.7,35.0,31.46,South,176,1.0,2.0,47,0.00,,,0.00,0,weatherlink.com 1.10,2013-05-09 07:56:00,
2013-05-09 02:11:00,57.1,35.0,31.47,SE,126,9.0,13.0,44,0.00,,,0.00,0,weatherlink.com 1.10,2013-05-09 08:11:00,
2013-05-09 02:26:00,57.2,35.0,31.47,SSE,156,7.0,11.0,44,0.00,,,0.00,0,weatherlink.com 1.10,2013-05-09 08:26:00,
2013-05-09 02:41:00,56.7,35.0,31.47,SSE,165,5.0,8.0,45,0.00,,,0.00,0,weatherlink.com 1.10,2013-05-09 08:41:00,
2013-05-09 02:56:00,55.1,35.0,31.47,South,169,6.0,10.0,47,0.00,,,0.00,0,weatherlink.com 1.10,2013-05-09 08:56:00,
2013-05-09 03:11:00,55.3,35.0,31.48,SSE,165,6.0,10.0,47,0.00,,,0.00,0,weatherlink.com 1.10,2013-05-09 09:11:00,
2013-05-09 03:26:00,54.9,35.0,31.48,South,169,6.0,9.0,47,0.00,,,0.00,0,weatherlink.com 1.10,2013-05-09 09:26:00,
2013-05-09 03:41:00,54.2,35.0,31.48,South,175,4.0,8.0,48,0.00,,,0.00,0,weatherlink.com 1.10,2013-05-09 09:41:00,
2013-05-09 03:56:00,52.6,35.0,31.49,South,191,2.0,2.0,51,0.00,,,0.00,0,weatherlink.com 1.10,2013-05-09 09:56:00,
2013-05-09 04:11:00,52.5,35.0,31.49,SSE,159,4.0,7.0,52,0.00,,,0.00,0,weatherlink.com 1.10,2013-05-09 10:11:00,
2013-05-09 04:26:00,51.6,35.0,31.50,SSE,161,1.0,3.0,54,0.00,,,0.00,0,weatherlink.com 1.10,2013-05-09 10:26:00,
2013-05-09 04:41:00,51.6,35.0,31.50,SSE,161,0.0,1.0,54,0.00,,,0.00,0,weatherlink.com 1.10,2013-05-09 10:41:00,
2013-05-09 04:56:00,51.6,35.0,31.50,SSE,161,0.0,1.0,54,0.00,,,0.00,0,weatherlink.com 1.10,2013-05-09 10:56:00,
2013-05-09 05:11:00,50.9,35.0,31.50,SSE,161,0.0,3.0,55,0.00,,,0.00,0,weatherlink.com 1.10,2013-05-09 11:11:00,
2013-05-09 05:26:00,50.3,35.0,31.50,SSE,161,1.0,1.0,57,0.00,,,0.00,0,weatherlink.com 1.10,2013-05-09 11:26:00,
2013-05-09 05:41:00,50.3,35.0,31.50,SSE,161,0.0,1.0,57,0.00,,,0.00,0,weatherlink.com 1.10,2013-05-09 11:41:00,
2013-05-09 05:56:00,50.0,36.0,31.51,SSE,161,1.0,2.0,58,0.00,,,0.00,0,weatherlink.com 1.10,2013-05-09 11:56:00,
2013-05-09 06:11:00,49.5,36.0,31.51,SSE,161,0.0,1.0,60,0.00,,,0.00,0,weatherlink.com 1.10,2013-05-09 12:11:00,
2013-05-09 06:26:00,49.5,36.0,31.51,SSE,161,0.0,0.0,59,0.00,,,0.00,12,weatherlink.com 1.10,2013-05-09 12:26:00,
2013-05-09 06:41:00,49.0,35.0,31.52,SSE,161,0.0,1.0,60,0.00,,,0.00,21,weatherlink.com 1.10,2013-05-09 12:41:00,
2013-05-09 06:56:00,48.9,36.0,31.53,SSE,161,0.0,1.0,61,0.00,,,0.00,32,weatherlink.com 1.10,2013-05-09 12:56:00,
2013-05-09 07:11:00,48.7,36.0,31.54,SSE,161,0.0,1.0,62,0.00,,,0.00,62,weatherlink.com 1.10,2013-05-09 13:11:00,
2013-05-09 07:26:00,49.5,37.0,31.54,SSE,161,0.0,1.0,63,0.00,,,0.00,109,weatherlink.com 1.10,2013-05-09 13:26:00,
2013-05-09 07:42:00,51.0,37.0,31.54,SSE,161,0.0,2.0,59,0.00,,,0.00,156,weatherlink.com 1.10,2013-05-09 13:42:00,
2013-05-09 07:57:00,51.5,37.0,31.54,SSE,161,0.0,1.0,59,0.00,,,0.00,190,weatherlink.com 1.10,2013-05-09 13:57:00,
2013-05-09 08:12:00,52.6,38.0,31.55,SSE,161,0.0,1.0,58,0.00,,,0.00,230,weatherlink.com 1.10,2013-05-09 14:12:00,
2013-05-09 08:27:00,52.7,38.0,31.55,SSE,161,0.0,1.0,58,0.00,,,0.00,276,weatherlink.com 1.10,2013-05-09 14:27:00,
2013-05-09 08:42:00,54.5,39.0,31.54,SSE,161,0.0,1.0,56,0.00,,,0.00,336,weatherlink.com 1.10,2013-05-09 14:42:00,
2013-05-09 08:57:00,54.8,39.0,31.54,West,279,0.0,3.0,56,0.00,,,0.00,383,weatherlink.com 1.10,2013-05-09 14:57:00,
2013-05-09 09:12:00,55.4,39.0,31.54,South,186,2.0,3.0,54,0.00,,,0.00,436,weatherlink.com 1.10,2013-05-09 15:12:00,
2013-05-09 09:27:00,55.2,39.0,31.53,SSW,196,0.0,3.0,55,0.00,,,0.00,359,weatherlink.com 1.10,2013-05-09 15:27:00,
2013-05-09 09:42:00,55.3,39.0,31.53,SSW,192,4.0,6.0,55,0.00,,,0.00,408,weatherlink.com 1.10,2013-05-09 15:42:00,
2013-05-09 09:57:00,54.9,40.0,31.53,SW,218,0.0,6.0,57,0.00,,,0.00,441,weatherlink.com 1.10,2013-05-09 15:57:00,
2013-05-09 10:12:00,56.5,39.0,31.53,WSW,240,1.0,5.0,53,0.00,,,0.00,570,weatherlink.com 1.10,2013-05-09 16:12:00,
2013-05-09 10:27:00,57.6,39.0,31.53,SSE,157,0.0,4.0,51,0.00,,,0.00,615,weatherlink.com 1.10,2013-05-09 16:27:00,
2013-05-09 10:42:00,58.8,39.0,31.52,SW,232,4.0,7.0,49,0.00,,,0.00,668,weatherlink.com 1.10,2013-05-09 16:42:00,
2013-05-09 10:57:00,59.9,40.0,31.52,WSW,242,2.0,6.0,48,0.00,,,0.00,591,weatherlink.com 1.10,2013-05-09 16:57:00,
2013-05-09 11:12:00,59.8,39.0,31.52,West,272,0.0,6.0,47,0.00,,,0.00,462,weatherlink.com 1.10,2013-05-09 17:12:00,
2013-05-09 11:27:00,61.1,40.0,31.52,NNW,333,0.0,3.0,46,0.00,,,0.00,793,weatherlink.com 1.10,2013-05-09 17:27:00,
2013-05-09 11:42:00,62.5,41.0,31.51,WNW,303,1.0,5.0,45,0.00,,,0.00,759,weatherlink.com 1.10,2013-05-09 17:42:00,
2013-05-09 11:57:00,64.3,40.0,31.50,WNW,300,0.0,6.0,41,0.00,,,0.00,795,weatherlink.com 1.10,2013-05-09 17:57:00,
2013-05-09 12:12:00,65.9,41.0,31.49,SW,226,1.0,9.0,40,0.00,,,0.00,816,weatherlink.com 1.10,2013-05-09 18:12:00,
2013-05-09 12:27:00,66.9,41.0,31.49,WNW,289,1.0,5.0,39,0.00,,,0.00,830,weatherlink.com 1.10,2013-05-09 18:27:00,
2013-05-09 12:42:00,66.7,40.0,31.48,SW,222,4.0,11.0,38,0.00,,,0.00,831,weatherlink.com 1.10,2013-05-09 18:42:00,
2013-05-09 12:57:00,67.7,40.0,31.48,West,279,2.0,8.0,37,0.00,,,0.00,861,weatherlink.com 1.10,2013-05-09 18:57:00,
2013-05-09 13:13:00,68.3,43.0,31.47,West,275,2.0,8.0,40,0.00,,,0.00,879,weatherlink.com 1.10,2013-05-09 19:13:00,
2013-05-09 13:28:00,69.4,42.0,31.47,NNE,19,0.0,5.0,37,0.00,,,0.00,895,weatherlink.com 1.10,2013-05-09 19:28:00,
2013-05-09 13:43:00,70.9,42.0,31.46,WNW,286,1.0,8.0,35,0.00,,,0.00,891,weatherlink.com 1.10,2013-05-09 19:43:00,
2013-05-09 13:58:00,71.1,41.0,31.46,SW,232,8.0,11.0,34,0.00,,,0.00,896,weatherlink.com 1.10,2013-05-09 19:58:00,
2013-05-09 14:13:00,73.3,43.0,31.45,NW,304,8.0,10.0,34,0.00,,,0.00,891,weatherlink.com 1.10,2013-05-09 20:13:00,
2013-05-09 14:28:00,72.1,40.0,31.45,SSW,204,3.0,12.0,31,0.00,,,0.00,891,weatherlink.com 1.10,2013-05-09 20:28:00,
2013-05-09 14:43:00,73.3,41.0,31.45,West,271,6.0,14.0,31,0.00,,,0.00,907,weatherlink.com 1.10,2013-05-09 20:43:00,
2013-05-09 14:58:00,73.2,40.0,31.44,SSW,195,9.0,16.0,30,0.00,,,0.00,1042,weatherlink.com 1.10,2013-05-09 20:58:00,
2013-05-09 15:13:00,72.9,41.0,31.44,SSW,210,9.0,17.0,32,0.00,,,0.00,935,weatherlink.com 1.10,2013-05-09 21:13:00,
2013-05-09 15:28:00,74.3,41.0,31.43,SW,232,10.0,14.0,30,0.00,,,0.00,889,weatherlink.com 1.10,2013-05-09 21:28:00,
2013-05-09 15:43:00,74.0,40.0,31.43,SW,214,10.0,13.0,29,0.00,,,0.00,858,weatherlink.com 1.10,2013-05-09 21:43:00,
2013-05-09 15:58:00,73.3,39.0,31.42,WSW,252,5.0,12.0,29,0.00,,,0.00,856,weatherlink.com 1.10,2013-05-09 21:58:00,
2013-05-09 16:13:00,71.5,38.0,31.42,SSW,209,5.0,13.0,30,0.00,,,0.00,151,weatherlink.com 1.10,2013-05-09 22:13:00,
2013-05-09 16:28:00,70.4,37.0,31.42,SW,228,4.0,9.0,30,0.00,,,0.00,156,weatherlink.com 1.10,2013-05-09 22:28:00,
2013-05-09 16:43:00,70.3,39.0,31.42,SSW,206,7.0,13.0,32,0.00,,,0.00,128,weatherlink.com 1.10,2013-05-09 22:43:00,
2013-05-09 16:58:00,68.1,41.0,31.43,South,186,11.0,11.0,37,0.00,,,0.00,72,weatherlink.com 1.10,2013-05-09 22:58:00,
2013-05-09 17:13:00,66.7,43.0,31.43,SSW,197,2.0,8.0,42,0.00,,,0.00,28,weatherlink.com 1.10,2013-05-09 23:13:00,
2013-05-09 17:28:00,59.9,48.0,31.44,NE,53,3.0,5.0,66,0.06,,,0.06,58,weatherlink.com 1.10,2013-05-09 23:28:00,
2013-05-09 17:43:00,62.7,40.0,31.42,East,84,1.0,15.0,43,0.08,,,0.08,120,weatherlink.com 1.10,2013-05-09 23:43:00,
2013-05-09 17:58:00,64.0,41.0,31.43,NNE,26,0.0,1.0,44,0.08,,,0.08,98,weatherlink.com 1.10,2013-05-09 23:58:00,
2013-05-09 18:13:00,67.0,45.0,31.42,SSE,167,2.0,4.0,46,0.08,,,0.08,332,weatherlink.com 1.10,2013-05-10 00:13:00,
2013-05-09 18:28:00,66.9,47.0,31.42,SSE,165,5.0,7.0,49,0.02,,,0.08,415,weatherlink.com 1.10,2013-05-10 00:28:00,
2013-05-09 18:43:00,67.8,43.0,31.42,SSE,167,5.0,11.0,40,0.00,,,0.08,403,weatherlink.com 1.10,2013-05-10 00:43:00,
2013-05-09 18:58:00,67.9,42.0,31.42,SSE,155,8.0,10.0,39,0.00,,,0.08,322,weatherlink.com 1.10,2013-05-10 00:58:00,
2013-05-09 19:13:00,68.6,43.0,31.42,South,182,8.0,11.0,40,0.00,,,0.08,264,weatherlink.com 1.10,2013-05-10 01:13:00,
2013-05-09 19:28:00,68.7,40.0,31.41,SE,144,10.0,11.0,35,0.00,,,0.08,202,weatherlink.com 1.10,2013-05-10 01:28:00,
2013-05-09 19:43:00,68.7,41.0,31.42,SSE,163,4.0,9.0,36,0.00,,,0.08,174,weatherlink.com 1.10,2013-05-10 01:43:00,
2013-05-09 19:58:00,67.6,41.0,31.42,SSE,147,8.0,10.0,38,0.00,,,0.08,40,weatherlink.com 1.10,2013-05-10 01:58:00,
2013-05-09 20:13:00,66.5,40.0,31.43,SSE,148,8.0,10.0,38,0.00,,,0.08,28,weatherlink.com 1.10,2013-05-10 02:13:00,
2013-05-09 20:28:00,66.2,39.0,31.44,SE,142,9.0,10.0,37,0.00,,,0.08,19,weatherlink.com 1.10,2013-05-10 02:28:00,
2013-05-09 20:43:00,65.9,39.0,31.44,SE,146,6.0,9.0,37,0.00,,,0.08,12,weatherlink.com 1.10,2013-05-10 02:43:00,
2013-05-09 20:58:00,65.2,39.0,31.45,SE,144,6.0,9.0,39,0.00,,,0.08,5,weatherlink.com 1.10,2013-05-10 02:58:00,
2013-05-09 21:13:00,64.9,39.0,31.46,SSE,155,8.0,10.0,39,0.00,,,0.08,0,weatherlink.com 1.10,2013-05-10 03:13:00,
2013-05-09 21:28:00,64.6,41.0,31.47,SSE,159,9.0,12.0,43,0.00,,,0.08,0,weatherlink.com 1.10,2013-05-10 03:28:00,
2013-05-09 21:43:00,64.3,41.0,31.47,SSE,155,10.0,14.0,43,0.00,,,0.08,0,weatherlink.com 1.10,2013-05-10 03:43:00,
2013-05-09 21:58:00,64.0,41.0,31.47,SSE,147,9.0,15.0,43,0.00,,,0.08,0,weatherlink.com 1.10,2013-05-10 03:58:00,
2013-05-09 22:13:00,64.3,39.0,31.48,SE,137,13.0,16.0,40,0.00,,,0.08,0,weatherlink.com 1.10,2013-05-10 04:13:00,
2013-05-09 22:28:00,64.5,39.0,31.48,SSE,154,9.0,17.0,39,0.00,,,0.08,0,weatherlink.com 1.10,2013-05-10 04:28:00,
2013-05-09 22:43:00,64.2,39.0,31.49,SSE,163,6.0,16.0,40,0.00,,,0.08,0,weatherlink.com 1.10,2013-05-10 04:43:00,
2013-05-09 22:58:00,63.8,39.0,31.49,SSE,154,11.0,16.0,41,0.00,,,0.08,0,weatherlink.com 1.10,2013-05-10 04:58:00,
2013-05-09 23:13:00,62.6,40.0,31.50,SSE,167,10.0,15.0,43,0.00,,,0.08,0,weatherlink.com 1.10,2013-05-10 05:13:00,
2013-05-09 23:28:00,62.3,39.0,31.50,South,173,13.0,17.0,43,0.00,,,0.08,0,weatherlink.com 1.10,2013-05-10 05:28:00,
2013-05-09 23:43:00,62.0,40.0,31.50,SSE,157,11.0,17.0,44,0.00,,,0.08,0,weatherlink.com 1.10,2013-05-10 05:43:00,
2013-05-09 23:58:00,61.6,40.0,31.51,SE,140,13.0,17.0,45,0.00,,,0.08,0,weatherlink.com 1.10,2013-05-10 05:58:00,